sensor_id;sensor_type;location;lat;lon;timestamp;P1;durP1;ratioP1;P2;durP2;ratioP2
2710;SDS011;20721;47.402;8.550;2023-04-29T00:00:08;3.21;;;3.21;;
2710;SDS011;20721;47.402;8.550;2023-04-29T00:01:08;2.67;;;2.67;;
2710;SDS011;20721;47.402;8.550;2023-04-29T00:02:10;3.32;;;3.32;;
2710;SDS011;20721;47.402;8.550;2023-04-29T00:03:10;2.86;;;2.86;;
2710;SDS011;20721;47.402;8.550;2023-04-29T00:04:09;3.17;;;3.17;;
2710;SDS011;20721;47.402;8.550;2023-04-29T00:05:09;3.13;;;3.13;;
2710;SDS011;20721;47.402;8.550;2023-04-29T00:06:09;2.98;;;2.98;;
2710;SDS011;20721;47.402;8.550;2023-04-29T00:07:08;3.03;;;3.03;;
2710;SDS011;20721;47.402;8.550;2023-04-29T00:08:10;3.18;;;3.18;;
2710;SDS011;20721;47.402;8.550;2023-04-29T00:09:08;3.22;;;3.22;;
2710;SDS011;20721;47.402;8.550;2023-04-29T00:10:08;3.58;;;3.58;;
2710;SDS011;20721;47.402;8.550;2023-04-29T00:11:08;3.31;;;3.31;;
2710;SDS011;20721;47.402;8.550;2023-04-29T00:12:08;3.09;;;3.09;;
2710;SDS011;20721;47.402;8.550;2023-04-29T00:13:08;4.15;;;4.15;;
2710;SDS011;20721;47.402;8.550;2023-04-29T00:14:08;3.47;;;3.47;;
2710;SDS011;20721;47.402;8.550;2023-04-29T00:15:09;2.92;;;2.92;;
2710;SDS011;20721;47.402;8.550;2023-04-29T00:16:08;3.46;;;3.46;;
2710;SDS011;20721;47.402;8.550;2023-04-29T00:17:08;3.62;;;3.62;;
2710;SDS011;20721;47.402;8.550;2023-04-29T00:18:08;3.40;;;3.40;;
2710;SDS011;20721;47.402;8.550;2023-04-29T00:19:08;3.49;;;3.49;;
2710;SDS011;20721;47.402;8.550;2023-04-29T00:20:08;3.05;;;3.05;;
2710;SDS011;20721;47.402;8.550;2023-04-29T00:22:08;2.88;;;2.88;;
2710;SDS011;20721;47.402;8.550;2023-04-29T00:23:08;2.74;;;2.74;;
2710;SDS011;20721;47.402;8.550;2023-04-29T00:24:09;2.95;;;2.95;;
2710;SDS011;20721;47.402;8.550;2023-04-29T00:25:08;2.81;;;2.81;;
2710;SDS011;20721;47.402;8.550;2023-04-29T00:26:08;2.88;;;2.88;;
2710;SDS011;20721;47.402;8.550;2023-04-29T00:27:08;2.96;;;2.96;;
2710;SDS011;20721;47.402;8.550;2023-04-29T00:28:11;3.58;;;3.58;;
2710;SDS011;20721;47.402;8.550;2023-04-29T00:29:08;3.48;;;3.48;;
2710;SDS011;20721;47.402;8.550;2023-04-29T00:31:08;3.43;;;3.43;;
2710;SDS011;20721;47.402;8.550;2023-04-29T00:32:09;3.10;;;3.10;;
2710;SDS011;20721;47.402;8.550;2023-04-29T00:33:08;3.44;;;3.44;;
2710;SDS011;20721;47.402;8.550;2023-04-29T00:34:08;3.16;;;3.16;;
2710;SDS011;20721;47.402;8.550;2023-04-29T00:35:09;3.51;;;3.51;;
2710;SDS011;20721;47.402;8.550;2023-04-29T00:36:08;3.07;;;3.07;;
2710;SDS011;20721;47.402;8.550;2023-04-29T00:37:08;3.04;;;3.04;;
2710;SDS011;20721;47.402;8.550;2023-04-29T00:38:08;3.41;;;3.41;;
2710;SDS011;20721;47.402;8.550;2023-04-29T00:39:10;3.24;;;3.24;;
2710;SDS011;20721;47.402;8.550;2023-04-29T00:40:09;3.27;;;3.27;;
2710;SDS011;20721;47.402;8.550;2023-04-29T00:41:08;3.44;;;3.44;;
2710;SDS011;20721;47.402;8.550;2023-04-29T00:42:09;3.37;;;3.37;;
2710;SDS011;20721;47.402;8.550;2023-04-29T00:43:08;2.77;;;2.77;;
2710;SDS011;20721;47.402;8.550;2023-04-29T00:44:08;2.85;;;2.85;;
2710;SDS011;20721;47.402;8.550;2023-04-29T00:45:10;3.58;;;3.58;;
2710;SDS011;20721;47.402;8.550;2023-04-29T00:46:08;3.12;;;3.12;;
2710;SDS011;20721;47.402;8.550;2023-04-29T00:47:09;3.17;;;3.17;;
2710;SDS011;20721;47.402;8.550;2023-04-29T00:48:08;3.66;;;3.66;;
2710;SDS011;20721;47.402;8.550;2023-04-29T00:49:10;3.67;;;3.67;;
2710;SDS011;20721;47.402;8.550;2023-04-29T00:50:09;3.47;;;3.47;;
2710;SDS011;20721;47.402;8.550;2023-04-29T00:51:08;3.50;;;3.50;;
2710;SDS011;20721;47.402;8.550;2023-04-29T00:52:10;3.28;;;3.28;;
2710;SDS011;20721;47.402;8.550;2023-04-29T00:53:10;3.15;;;3.15;;
2710;SDS011;20721;47.402;8.550;2023-04-29T00:54:08;3.56;;;3.56;;
2710;SDS011;20721;47.402;8.550;2023-04-29T00:55:09;3.81;;;3.81;;
2710;SDS011;20721;47.402;8.550;2023-04-29T00:56:11;3.81;;;3.81;;
2710;SDS011;20721;47.402;8.550;2023-04-29T00:57:10;3.90;;;3.90;;
2710;SDS011;20721;47.402;8.550;2023-04-29T00:58:09;3.67;;;3.67;;
2710;SDS011;20721;47.402;8.550;2023-04-29T01:00:09;3.26;;;3.26;;
2710;SDS011;20721;47.402;8.550;2023-04-29T01:01:08;4.01;;;4.01;;
2710;SDS011;20721;47.402;8.550;2023-04-29T01:02:09;3.38;;;3.38;;
2710;SDS011;20721;47.402;8.550;2023-04-29T01:03:08;3.37;;;3.37;;
2710;SDS011;20721;47.402;8.550;2023-04-29T01:04:09;3.48;;;3.48;;
2710;SDS011;20721;47.402;8.550;2023-04-29T01:05:08;3.58;;;3.58;;
2710;SDS011;20721;47.402;8.550;2023-04-29T01:06:23;3.15;;;3.15;;
2710;SDS011;20721;47.402;8.550;2023-04-29T01:07:29;2.98;;;2.98;;
2710;SDS011;20721;47.402;8.550;2023-04-29T01:09:17;2.69;;;2.69;;
2710;SDS011;20721;47.402;8.550;2023-04-29T01:10:13;2.95;;;2.95;;
2710;SDS011;20721;47.402;8.550;2023-04-29T01:11:18;2.79;;;2.79;;
2710;SDS011;20721;47.402;8.550;2023-04-29T01:12:19;2.60;;;2.60;;
2710;SDS011;20721;47.402;8.550;2023-04-29T01:14:11;2.74;;;2.74;;
2710;SDS011;20721;47.402;8.550;2023-04-29T01:15:16;2.43;;;2.43;;
2710;SDS011;20721;47.402;8.550;2023-04-29T01:16:17;2.53;;;2.53;;
2710;SDS011;20721;47.402;8.550;2023-04-29T01:17:13;2.37;;;2.37;;
2710;SDS011;20721;47.402;8.550;2023-04-29T01:18:28;2.61;;;2.61;;
2710;SDS011;20721;47.402;8.550;2023-04-29T01:19:19;1.94;;;1.94;;
2710;SDS011;20721;47.402;8.550;2023-04-29T01:20:09;2.08;;;2.08;;
2710;SDS011;20721;47.402;8.550;2023-04-29T01:21:08;2.47;;;2.47;;
2710;SDS011;20721;47.402;8.550;2023-04-29T01:22:10;2.19;;;2.19;;
2710;SDS011;20721;47.402;8.550;2023-04-29T01:23:08;2.06;;;2.06;;
2710;SDS011;20721;47.402;8.550;2023-04-29T01:24:08;2.02;;;2.02;;
2710;SDS011;20721;47.402;8.550;2023-04-29T01:25:08;2.14;;;2.14;;
2710;SDS011;20721;47.402;8.550;2023-04-29T01:26:08;2.44;;;2.44;;
2710;SDS011;20721;47.402;8.550;2023-04-29T01:29:21;2.32;;;2.32;;
2710;SDS011;20721;47.402;8.550;2023-04-29T01:30:27;2.43;;;2.43;;
2710;SDS011;20721;47.402;8.550;2023-04-29T01:31:31;2.12;;;2.12;;
2710;SDS011;20721;47.402;8.550;2023-04-29T01:32:23;1.65;;;1.65;;
2710;SDS011;20721;47.402;8.550;2023-04-29T01:34:21;1.90;;;1.90;;
2710;SDS011;20721;47.402;8.550;2023-04-29T01:35:27;2.05;;;2.05;;
2710;SDS011;20721;47.402;8.550;2023-04-29T01:37:17;1.81;;;1.81;;
2710;SDS011;20721;47.402;8.550;2023-04-29T01:40:18;1.44;;;1.44;;
2710;SDS011;20721;47.402;8.550;2023-04-29T01:41:17;1.78;;;1.78;;
2710;SDS011;20721;47.402;8.550;2023-04-29T01:43:11;1.55;;;1.55;;
2710;SDS011;20721;47.402;8.550;2023-04-29T01:44:12;1.72;;;1.72;;
2710;SDS011;20721;47.402;8.550;2023-04-29T01:45:10;1.96;;;1.96;;
2710;SDS011;20721;47.402;8.550;2023-04-29T01:46:11;1.67;;;1.67;;
2710;SDS011;20721;47.402;8.550;2023-04-29T01:47:12;1.30;;;1.30;;
2710;SDS011;20721;47.402;8.550;2023-04-29T01:48:09;1.79;;;1.79;;
2710;SDS011;20721;47.402;8.550;2023-04-29T01:49:08;1.24;;;1.24;;
2710;SDS011;20721;47.402;8.550;2023-04-29T01:50:08;1.49;;;1.49;;
2710;SDS011;20721;47.402;8.550;2023-04-29T01:51:08;1.46;;;1.46;;
2710;SDS011;20721;47.402;8.550;2023-04-29T01:52:08;1.67;;;1.67;;
2710;SDS011;20721;47.402;8.550;2023-04-29T01:53:10;1.57;;;1.57;;
2710;SDS011;20721;47.402;8.550;2023-04-29T01:54:08;1.84;;;1.84;;
2710;SDS011;20721;47.402;8.550;2023-04-29T01:55:09;1.97;;;1.97;;
2710;SDS011;20721;47.402;8.550;2023-04-29T01:56:08;1.93;;;1.93;;
2710;SDS011;20721;47.402;8.550;2023-04-29T01:57:09;1.62;;;1.62;;
2710;SDS011;20721;47.402;8.550;2023-04-29T01:58:09;1.57;;;1.57;;
2710;SDS011;20721;47.402;8.550;2023-04-29T01:59:10;1.31;;;1.31;;
2710;SDS011;20721;47.402;8.550;2023-04-29T02:00:09;1.28;;;1.28;;
2710;SDS011;20721;47.402;8.550;2023-04-29T02:01:08;1.56;;;1.56;;
2710;SDS011;20721;47.402;8.550;2023-04-29T02:02:08;1.53;;;1.53;;
2710;SDS011;20721;47.402;8.550;2023-04-29T02:03:09;1.33;;;1.33;;
2710;SDS011;20721;47.402;8.550;2023-04-29T02:04:09;1.54;;;1.54;;
2710;SDS011;20721;47.402;8.550;2023-04-29T02:05:09;1.58;;;1.58;;
2710;SDS011;20721;47.402;8.550;2023-04-29T02:06:08;1.62;;;1.62;;
2710;SDS011;20721;47.402;8.550;2023-04-29T02:07:08;3.54;;;3.54;;
2710;SDS011;20721;47.402;8.550;2023-04-29T02:08:09;5.15;;;5.15;;
2710;SDS011;20721;47.402;8.550;2023-04-29T02:09:09;5.12;;;5.12;;
2710;SDS011;20721;47.402;8.550;2023-04-29T02:10:09;5.84;;;5.84;;
2710;SDS011;20721;47.402;8.550;2023-04-29T02:11:09;6.13;;;6.13;;
2710;SDS011;20721;47.402;8.550;2023-04-29T02:12:08;6.04;;;6.04;;
2710;SDS011;20721;47.402;8.550;2023-04-29T02:13:08;5.30;;;5.30;;
2710;SDS011;20721;47.402;8.550;2023-04-29T02:14:08;5.70;;;5.70;;
2710;SDS011;20721;47.402;8.550;2023-04-29T02:15:09;5.62;;;5.62;;
2710;SDS011;20721;47.402;8.550;2023-04-29T02:16:16;5.87;;;5.87;;
2710;SDS011;20721;47.402;8.550;2023-04-29T02:18:09;4.92;;;4.92;;
2710;SDS011;20721;47.402;8.550;2023-04-29T02:19:08;5.98;;;5.98;;
2710;SDS011;20721;47.402;8.550;2023-04-29T02:20:08;5.89;;;5.89;;
2710;SDS011;20721;47.402;8.550;2023-04-29T02:22:09;5.58;;;5.58;;
2710;SDS011;20721;47.402;8.550;2023-04-29T02:23:08;5.84;;;5.84;;
2710;SDS011;20721;47.402;8.550;2023-04-29T02:24:09;5.61;;;5.61;;
2710;SDS011;20721;47.402;8.550;2023-04-29T02:25:10;5.06;;;5.06;;
2710;SDS011;20721;47.402;8.550;2023-04-29T02:26:09;5.27;;;5.27;;
2710;SDS011;20721;47.402;8.550;2023-04-29T02:27:08;5.39;;;5.39;;
2710;SDS011;20721;47.402;8.550;2023-04-29T02:28:09;5.82;;;5.82;;
2710;SDS011;20721;47.402;8.550;2023-04-29T02:32:09;5.04;;;5.04;;
2710;SDS011;20721;47.402;8.550;2023-04-29T02:33:08;5.22;;;5.22;;
2710;SDS011;20721;47.402;8.550;2023-04-29T02:34:09;5.06;;;5.06;;
2710;SDS011;20721;47.402;8.550;2023-04-29T02:35:08;4.81;;;4.81;;
2710;SDS011;20721;47.402;8.550;2023-04-29T02:36:10;4.85;;;4.85;;
2710;SDS011;20721;47.402;8.550;2023-04-29T02:37:09;4.31;;;4.31;;
2710;SDS011;20721;47.402;8.550;2023-04-29T02:38:08;4.63;;;4.63;;
2710;SDS011;20721;47.402;8.550;2023-04-29T02:39:09;4.36;;;4.36;;
2710;SDS011;20721;47.402;8.550;2023-04-29T02:40:09;4.09;;;4.09;;
2710;SDS011;20721;47.402;8.550;2023-04-29T02:41:08;4.47;;;4.47;;
2710;SDS011;20721;47.402;8.550;2023-04-29T02:43:10;3.96;;;3.96;;
2710;SDS011;20721;47.402;8.550;2023-04-29T02:45:09;3.63;;;3.63;;
2710;SDS011;20721;47.402;8.550;2023-04-29T02:46:09;3.86;;;3.86;;
2710;SDS011;20721;47.402;8.550;2023-04-29T02:48:08;3.30;;;3.30;;
2710;SDS011;20721;47.402;8.550;2023-04-29T02:49:10;3.21;;;3.21;;
2710;SDS011;20721;47.402;8.550;2023-04-29T02:50:09;2.28;;;2.28;;
2710;SDS011;20721;47.402;8.550;2023-04-29T02:51:09;2.40;;;2.40;;
2710;SDS011;20721;47.402;8.550;2023-04-29T02:52:09;2.33;;;2.33;;
2710;SDS011;20721;47.402;8.550;2023-04-29T02:53:08;2.44;;;2.44;;
2710;SDS011;20721;47.402;8.550;2023-04-29T02:54:09;2.00;;;2.00;;
2710;SDS011;20721;47.402;8.550;2023-04-29T02:55:09;2.02;;;2.02;;
2710;SDS011;20721;47.402;8.550;2023-04-29T02:56:09;1.82;;;1.82;;
2710;SDS011;20721;47.402;8.550;2023-04-29T02:57:08;1.97;;;1.97;;
2710;SDS011;20721;47.402;8.550;2023-04-29T02:59:09;1.24;;;1.24;;
2710;SDS011;20721;47.402;8.550;2023-04-29T03:00:09;1.66;;;1.66;;
2710;SDS011;20721;47.402;8.550;2023-04-29T03:01:09;1.80;;;1.80;;
2710;SDS011;20721;47.402;8.550;2023-04-29T03:02:09;1.67;;;1.67;;
2710;SDS011;20721;47.402;8.550;2023-04-29T03:03:09;1.52;;;1.52;;
2710;SDS011;20721;47.402;8.550;2023-04-29T03:04:09;1.48;;;1.48;;
2710;SDS011;20721;47.402;8.550;2023-04-29T03:05:09;1.78;;;1.78;;
2710;SDS011;20721;47.402;8.550;2023-04-29T03:06:09;1.82;;;1.82;;
2710;SDS011;20721;47.402;8.550;2023-04-29T03:07:11;1.86;;;1.86;;
2710;SDS011;20721;47.402;8.550;2023-04-29T03:08:09;1.69;;;1.69;;
2710;SDS011;20721;47.402;8.550;2023-04-29T03:09:09;1.79;;;1.79;;
2710;SDS011;20721;47.402;8.550;2023-04-29T03:10:09;2.24;;;2.24;;
2710;SDS011;20721;47.402;8.550;2023-04-29T03:11:09;2.00;;;2.00;;
2710;SDS011;20721;47.402;8.550;2023-04-29T03:12:09;1.51;;;1.51;;
2710;SDS011;20721;47.402;8.550;2023-04-29T03:13:11;1.52;;;1.52;;
2710;SDS011;20721;47.402;8.550;2023-04-29T03:14:10;1.41;;;1.41;;
2710;SDS011;20721;47.402;8.550;2023-04-29T03:15:09;1.68;;;1.68;;
2710;SDS011;20721;47.402;8.550;2023-04-29T03:16:09;1.64;;;1.64;;
2710;SDS011;20721;47.402;8.550;2023-04-29T03:18:10;1.65;;;1.65;;
2710;SDS011;20721;47.402;8.550;2023-04-29T03:19:09;1.82;;;1.82;;
2710;SDS011;20721;47.402;8.550;2023-04-29T03:20:09;2.09;;;2.09;;
2710;SDS011;20721;47.402;8.550;2023-04-29T03:21:09;2.21;;;2.21;;
2710;SDS011;20721;47.402;8.550;2023-04-29T03:22:09;2.82;;;2.82;;
2710;SDS011;20721;47.402;8.550;2023-04-29T03:23:09;2.47;;;2.47;;
2710;SDS011;20721;47.402;8.550;2023-04-29T03:25:09;3.29;;;3.29;;
2710;SDS011;20721;47.402;8.550;2023-04-29T03:26:10;2.80;;;2.80;;
2710;SDS011;20721;47.402;8.550;2023-04-29T03:27:10;2.73;;;2.73;;
2710;SDS011;20721;47.402;8.550;2023-04-29T03:28:09;2.33;;;2.33;;
2710;SDS011;20721;47.402;8.550;2023-04-29T03:29:09;2.28;;;2.28;;
2710;SDS011;20721;47.402;8.550;2023-04-29T03:31:09;1.74;;;1.74;;
2710;SDS011;20721;47.402;8.550;2023-04-29T03:32:09;1.60;;;1.60;;
2710;SDS011;20721;47.402;8.550;2023-04-29T03:33:09;1.59;;;1.59;;
2710;SDS011;20721;47.402;8.550;2023-04-29T03:34:09;2.07;;;2.07;;
2710;SDS011;20721;47.402;8.550;2023-04-29T03:35:09;1.45;;;1.45;;
2710;SDS011;20721;47.402;8.550;2023-04-29T03:36:09;1.60;;;1.60;;
2710;SDS011;20721;47.402;8.550;2023-04-29T03:37:09;1.38;;;1.38;;
2710;SDS011;20721;47.402;8.550;2023-04-29T03:38:09;1.68;;;1.68;;
2710;SDS011;20721;47.402;8.550;2023-04-29T03:39:09;1.33;;;1.33;;
2710;SDS011;20721;47.402;8.550;2023-04-29T03:40:09;1.58;;;1.58;;
2710;SDS011;20721;47.402;8.550;2023-04-29T03:41:09;1.34;;;1.34;;
2710;SDS011;20721;47.402;8.550;2023-04-29T03:42:09;1.48;;;1.48;;
2710;SDS011;20721;47.402;8.550;2023-04-29T03:43:10;1.29;;;1.29;;
2710;SDS011;20721;47.402;8.550;2023-04-29T03:44:11;1.20;;;1.20;;
2710;SDS011;20721;47.402;8.550;2023-04-29T03:45:09;1.29;;;1.29;;
2710;SDS011;20721;47.402;8.550;2023-04-29T03:46:09;1.32;;;1.32;;
2710;SDS011;20721;47.402;8.550;2023-04-29T03:48:09;1.17;;;1.17;;
2710;SDS011;20721;47.402;8.550;2023-04-29T03:49:09;1.11;;;1.11;;
2710;SDS011;20721;47.402;8.550;2023-04-29T03:50:11;1.14;;;1.14;;
2710;SDS011;20721;47.402;8.550;2023-04-29T03:51:09;1.42;;;1.42;;
2710;SDS011;20721;47.402;8.550;2023-04-29T03:52:09;1.23;;;1.23;;
2710;SDS011;20721;47.402;8.550;2023-04-29T03:53:09;1.12;;;1.12;;
2710;SDS011;20721;47.402;8.550;2023-04-29T03:54:09;1.13;;;1.13;;
2710;SDS011;20721;47.402;8.550;2023-04-29T03:55:09;0.95;;;0.95;;
2710;SDS011;20721;47.402;8.550;2023-04-29T03:56:09;0.91;;;0.91;;
2710;SDS011;20721;47.402;8.550;2023-04-29T03:57:09;1.23;;;1.23;;
2710;SDS011;20721;47.402;8.550;2023-04-29T03:58:09;1.32;;;1.32;;
2710;SDS011;20721;47.402;8.550;2023-04-29T03:59:09;1.09;;;1.09;;
2710;SDS011;20721;47.402;8.550;2023-04-29T04:00:09;0.88;;;0.88;;
2710;SDS011;20721;47.402;8.550;2023-04-29T04:01:09;1.28;;;1.28;;
2710;SDS011;20721;47.402;8.550;2023-04-29T04:02:09;1.05;;;1.05;;
2710;SDS011;20721;47.402;8.550;2023-04-29T04:03:09;1.11;;;1.11;;
2710;SDS011;20721;47.402;8.550;2023-04-29T04:04:09;1.12;;;1.12;;
2710;SDS011;20721;47.402;8.550;2023-04-29T04:05:09;1.16;;;1.16;;
2710;SDS011;20721;47.402;8.550;2023-04-29T04:06:09;1.17;;;1.17;;
2710;SDS011;20721;47.402;8.550;2023-04-29T04:07:09;1.34;;;1.34;;
2710;SDS011;20721;47.402;8.550;2023-04-29T04:08:09;1.55;;;1.55;;
2710;SDS011;20721;47.402;8.550;2023-04-29T04:09:09;1.48;;;1.48;;
2710;SDS011;20721;47.402;8.550;2023-04-29T04:10:09;1.30;;;1.30;;
2710;SDS011;20721;47.402;8.550;2023-04-29T04:11:12;1.42;;;1.42;;
2710;SDS011;20721;47.402;8.550;2023-04-29T04:12:10;1.82;;;1.82;;
2710;SDS011;20721;47.402;8.550;2023-04-29T04:13:09;1.86;;;1.86;;
2710;SDS011;20721;47.402;8.550;2023-04-29T04:14:09;1.64;;;1.64;;
2710;SDS011;20721;47.402;8.550;2023-04-29T04:15:09;1.46;;;1.46;;
2710;SDS011;20721;47.402;8.550;2023-04-29T04:16:09;1.69;;;1.69;;
2710;SDS011;20721;47.402;8.550;2023-04-29T04:17:09;1.90;;;1.90;;
2710;SDS011;20721;47.402;8.550;2023-04-29T04:19:09;2.11;;;2.11;;
2710;SDS011;20721;47.402;8.550;2023-04-29T04:21:15;2.49;;;2.49;;
2710;SDS011;20721;47.402;8.550;2023-04-29T04:22:09;2.14;;;2.14;;
2710;SDS011;20721;47.402;8.550;2023-04-29T04:23:09;2.70;;;2.70;;
2710;SDS011;20721;47.402;8.550;2023-04-29T04:24:09;2.68;;;2.68;;
2710;SDS011;20721;47.402;8.550;2023-04-29T04:25:09;2.41;;;2.41;;
2710;SDS011;20721;47.402;8.550;2023-04-29T04:27:11;2.60;;;2.60;;
2710;SDS011;20721;47.402;8.550;2023-04-29T04:28:09;1.92;;;1.92;;
2710;SDS011;20721;47.402;8.550;2023-04-29T04:29:09;2.84;;;2.84;;
2710;SDS011;20721;47.402;8.550;2023-04-29T04:30:09;2.81;;;2.81;;
2710;SDS011;20721;47.402;8.550;2023-04-29T04:31:09;2.26;;;2.26;;
2710;SDS011;20721;47.402;8.550;2023-04-29T04:32:09;2.72;;;2.72;;
2710;SDS011;20721;47.402;8.550;2023-04-29T04:33:09;2.58;;;2.58;;
2710;SDS011;20721;47.402;8.550;2023-04-29T04:34:09;2.78;;;2.78;;
2710;SDS011;20721;47.402;8.550;2023-04-29T04:35:09;2.73;;;2.73;;
2710;SDS011;20721;47.402;8.550;2023-04-29T04:38:09;2.73;;;2.73;;
2710;SDS011;20721;47.402;8.550;2023-04-29T04:40:09;3.18;;;3.18;;
2710;SDS011;20721;47.402;8.550;2023-04-29T04:41:09;2.73;;;2.73;;
2710;SDS011;20721;47.402;8.550;2023-04-29T04:42:09;2.32;;;2.32;;
2710;SDS011;20721;47.402;8.550;2023-04-29T04:43:09;2.50;;;2.50;;
2710;SDS011;20721;47.402;8.550;2023-04-29T04:46:11;3.03;;;3.03;;
2710;SDS011;20721;47.402;8.550;2023-04-29T04:47:10;2.62;;;2.62;;
2710;SDS011;20721;47.402;8.550;2023-04-29T04:48:09;3.11;;;3.11;;
2710;SDS011;20721;47.402;8.550;2023-04-29T04:49:09;2.64;;;2.64;;
2710;SDS011;20721;47.402;8.550;2023-04-29T04:50:09;2.53;;;2.53;;
2710;SDS011;20721;47.402;8.550;2023-04-29T04:51:16;2.11;;;2.11;;
2710;SDS011;20721;47.402;8.550;2023-04-29T04:52:09;1.74;;;1.74;;
2710;SDS011;20721;47.402;8.550;2023-04-29T04:53:09;2.69;;;2.69;;
2710;SDS011;20721;47.402;8.550;2023-04-29T04:54:09;2.51;;;2.51;;
2710;SDS011;20721;47.402;8.550;2023-04-29T04:55:09;2.39;;;2.39;;
2710;SDS011;20721;47.402;8.550;2023-04-29T04:56:10;2.33;;;2.33;;
2710;SDS011;20721;47.402;8.550;2023-04-29T04:57:09;2.05;;;2.05;;
2710;SDS011;20721;47.402;8.550;2023-04-29T04:58:12;1.79;;;1.79;;
2710;SDS011;20721;47.402;8.550;2023-04-29T04:59:09;1.79;;;1.79;;
2710;SDS011;20721;47.402;8.550;2023-04-29T05:00:10;1.64;;;1.64;;
2710;SDS011;20721;47.402;8.550;2023-04-29T05:01:09;2.55;;;2.55;;
2710;SDS011;20721;47.402;8.550;2023-04-29T05:02:09;2.30;;;2.30;;
2710;SDS011;20721;47.402;8.550;2023-04-29T05:03:09;2.04;;;2.04;;
2710;SDS011;20721;47.402;8.550;2023-04-29T05:04:11;2.91;;;2.91;;
2710;SDS011;20721;47.402;8.550;2023-04-29T05:05:09;2.38;;;2.38;;
2710;SDS011;20721;47.402;8.550;2023-04-29T05:06:09;2.52;;;2.52;;
2710;SDS011;20721;47.402;8.550;2023-04-29T05:07:09;2.94;;;2.94;;
2710;SDS011;20721;47.402;8.550;2023-04-29T05:08:09;2.52;;;2.52;;
2710;SDS011;20721;47.402;8.550;2023-04-29T05:09:09;2.65;;;2.65;;
2710;SDS011;20721;47.402;8.550;2023-04-29T05:10:09;2.47;;;2.47;;
2710;SDS011;20721;47.402;8.550;2023-04-29T05:12:09;2.46;;;2.46;;
2710;SDS011;20721;47.402;8.550;2023-04-29T05:14:09;2.56;;;2.56;;
2710;SDS011;20721;47.402;8.550;2023-04-29T05:15:09;2.99;;;2.99;;
2710;SDS011;20721;47.402;8.550;2023-04-29T05:16:11;3.36;;;3.36;;
2710;SDS011;20721;47.402;8.550;2023-04-29T05:17:09;3.01;;;3.01;;
2710;SDS011;20721;47.402;8.550;2023-04-29T05:18:09;3.01;;;3.01;;
2710;SDS011;20721;47.402;8.550;2023-04-29T05:19:09;3.03;;;3.03;;
2710;SDS011;20721;47.402;8.550;2023-04-29T05:20:09;3.21;;;3.21;;
2710;SDS011;20721;47.402;8.550;2023-04-29T05:21:09;2.57;;;2.57;;
2710;SDS011;20721;47.402;8.550;2023-04-29T05:22:09;3.01;;;3.01;;
2710;SDS011;20721;47.402;8.550;2023-04-29T05:23:09;3.54;;;3.54;;
2710;SDS011;20721;47.402;8.550;2023-04-29T05:24:09;3.02;;;3.02;;
2710;SDS011;20721;47.402;8.550;2023-04-29T05:25:12;3.25;;;3.25;;
2710;SDS011;20721;47.402;8.550;2023-04-29T05:26:09;3.14;;;3.14;;
2710;SDS011;20721;47.402;8.550;2023-04-29T05:28:09;3.36;;;3.36;;
2710;SDS011;20721;47.402;8.550;2023-04-29T05:29:10;3.68;;;3.68;;
2710;SDS011;20721;47.402;8.550;2023-04-29T05:30:10;3.23;;;3.23;;
2710;SDS011;20721;47.402;8.550;2023-04-29T05:31:09;3.39;;;3.39;;
2710;SDS011;20721;47.402;8.550;2023-04-29T05:32:09;4.03;;;4.03;;
2710;SDS011;20721;47.402;8.550;2023-04-29T05:33:09;3.73;;;3.73;;
2710;SDS011;20721;47.402;8.550;2023-04-29T05:35:12;3.49;;;3.49;;
2710;SDS011;20721;47.402;8.550;2023-04-29T05:36:09;3.42;;;3.42;;
2710;SDS011;20721;47.402;8.550;2023-04-29T05:37:09;3.33;;;3.33;;
2710;SDS011;20721;47.402;8.550;2023-04-29T05:38:09;3.62;;;3.62;;
2710;SDS011;20721;47.402;8.550;2023-04-29T05:39:09;3.41;;;3.41;;
2710;SDS011;20721;47.402;8.550;2023-04-29T05:40:09;3.37;;;3.37;;
2710;SDS011;20721;47.402;8.550;2023-04-29T05:41:11;3.47;;;3.47;;
2710;SDS011;20721;47.402;8.550;2023-04-29T05:42:10;3.07;;;3.07;;
2710;SDS011;20721;47.402;8.550;2023-04-29T05:43:09;3.66;;;3.66;;
2710;SDS011;20721;47.402;8.550;2023-04-29T05:45:09;2.50;;;2.50;;
2710;SDS011;20721;47.402;8.550;2023-04-29T05:46:09;3.34;;;3.34;;
2710;SDS011;20721;47.402;8.550;2023-04-29T05:47:09;3.29;;;3.29;;
2710;SDS011;20721;47.402;8.550;2023-04-29T05:48:09;3.50;;;3.50;;
2710;SDS011;20721;47.402;8.550;2023-04-29T05:49:09;2.94;;;2.94;;
2710;SDS011;20721;47.402;8.550;2023-04-29T05:50:09;3.27;;;3.27;;
2710;SDS011;20721;47.402;8.550;2023-04-29T05:51:09;3.13;;;3.13;;
2710;SDS011;20721;47.402;8.550;2023-04-29T05:52:13;3.11;;;3.11;;
2710;SDS011;20721;47.402;8.550;2023-04-29T05:53:09;3.00;;;3.00;;
2710;SDS011;20721;47.402;8.550;2023-04-29T05:54:09;3.11;;;3.11;;
2710;SDS011;20721;47.402;8.550;2023-04-29T05:55:09;3.32;;;3.32;;
2710;SDS011;20721;47.402;8.550;2023-04-29T05:56:09;3.77;;;3.77;;
2710;SDS011;20721;47.402;8.550;2023-04-29T05:57:11;3.09;;;3.09;;
2710;SDS011;20721;47.402;8.550;2023-04-29T05:58:10;3.27;;;3.27;;
2710;SDS011;20721;47.402;8.550;2023-04-29T05:59:09;2.80;;;2.80;;
2710;SDS011;20721;47.402;8.550;2023-04-29T06:00:09;3.31;;;3.31;;
2710;SDS011;20721;47.402;8.550;2023-04-29T06:01:10;2.94;;;2.94;;
2710;SDS011;20721;47.402;8.550;2023-04-29T06:02:09;3.30;;;3.30;;
2710;SDS011;20721;47.402;8.550;2023-04-29T06:03:09;3.17;;;3.17;;
2710;SDS011;20721;47.402;8.550;2023-04-29T06:04:10;3.16;;;3.16;;
2710;SDS011;20721;47.402;8.550;2023-04-29T06:05:10;3.15;;;3.15;;
2710;SDS011;20721;47.402;8.550;2023-04-29T06:06:10;3.33;;;3.33;;
2710;SDS011;20721;47.402;8.550;2023-04-29T06:07:09;3.57;;;3.57;;
2710;SDS011;20721;47.402;8.550;2023-04-29T06:08:09;3.11;;;3.11;;
2710;SDS011;20721;47.402;8.550;2023-04-29T06:09:09;2.68;;;2.68;;
2710;SDS011;20721;47.402;8.550;2023-04-29T06:10:09;3.02;;;3.02;;
2710;SDS011;20721;47.402;8.550;2023-04-29T06:11:09;3.32;;;3.32;;
2710;SDS011;20721;47.402;8.550;2023-04-29T06:12:12;3.15;;;3.15;;
2710;SDS011;20721;47.402;8.550;2023-04-29T06:13:09;2.70;;;2.70;;
2710;SDS011;20721;47.402;8.550;2023-04-29T06:14:09;3.24;;;3.24;;
2710;SDS011;20721;47.402;8.550;2023-04-29T06:15:09;2.99;;;2.99;;
2710;SDS011;20721;47.402;8.550;2023-04-29T06:16:10;2.94;;;2.94;;
2710;SDS011;20721;47.402;8.550;2023-04-29T06:17:09;3.41;;;3.41;;
2710;SDS011;20721;47.402;8.550;2023-04-29T06:18:12;3.15;;;3.15;;
2710;SDS011;20721;47.402;8.550;2023-04-29T06:19:09;2.87;;;2.87;;
2710;SDS011;20721;47.402;8.550;2023-04-29T06:20:11;2.69;;;2.69;;
2710;SDS011;20721;47.402;8.550;2023-04-29T06:21:09;2.67;;;2.67;;
2710;SDS011;20721;47.402;8.550;2023-04-29T06:22:09;2.75;;;2.75;;
2710;SDS011;20721;47.402;8.550;2023-04-29T06:23:09;2.74;;;2.74;;
2710;SDS011;20721;47.402;8.550;2023-04-29T06:24:09;2.62;;;2.62;;
2710;SDS011;20721;47.402;8.550;2023-04-29T06:26:09;3.12;;;3.12;;
2710;SDS011;20721;47.402;8.550;2023-04-29T06:27:09;3.12;;;3.12;;
2710;SDS011;20721;47.402;8.550;2023-04-29T06:28:10;2.84;;;2.84;;
2710;SDS011;20721;47.402;8.550;2023-04-29T06:29:09;2.91;;;2.91;;
2710;SDS011;20721;47.402;8.550;2023-04-29T06:30:09;3.01;;;3.01;;
2710;SDS011;20721;47.402;8.550;2023-04-29T06:31:09;2.84;;;2.84;;
2710;SDS011;20721;47.402;8.550;2023-04-29T06:32:09;3.24;;;3.24;;
2710;SDS011;20721;47.402;8.550;2023-04-29T06:34:09;2.64;;;2.64;;
2710;SDS011;20721;47.402;8.550;2023-04-29T06:35:10;3.60;;;3.60;;
2710;SDS011;20721;47.402;8.550;2023-04-29T06:36:09;3.58;;;3.58;;
2710;SDS011;20721;47.402;8.550;2023-04-29T06:37:09;3.30;;;3.30;;
2710;SDS011;20721;47.402;8.550;2023-04-29T06:38:09;3.51;;;3.51;;
2710;SDS011;20721;47.402;8.550;2023-04-29T06:40:09;3.43;;;3.43;;
2710;SDS011;20721;47.402;8.550;2023-04-29T06:41:10;3.71;;;3.71;;
2710;SDS011;20721;47.402;8.550;2023-04-29T06:42:09;4.03;;;4.03;;
2710;SDS011;20721;47.402;8.550;2023-04-29T06:45:09;3.68;;;3.68;;
2710;SDS011;20721;47.402;8.550;2023-04-29T06:46:09;3.29;;;3.29;;
2710;SDS011;20721;47.402;8.550;2023-04-29T06:47:09;3.10;;;3.10;;
2710;SDS011;20721;47.402;8.550;2023-04-29T06:49:12;2.54;;;2.54;;
2710;SDS011;20721;47.402;8.550;2023-04-29T06:50:09;1.89;;;1.89;;